Terminal Aerodrome Forecast
Issued by NWS Wichita, KS

Home | Current Version | Previous Version | Text Only | Print | Product List | Glossary Off
Versions: 1 2 3 4 5 6 7 8 9 10 11 12 13 14 15 16 17 18 19

000
FTUS43 KICT 041139
TAFICT
TAF
KICT 041139Z 0412/0512 18007KT P6SM BKN150 OVC250
     FM041500 18014KT P6SM OVC150
     FM041800 19017G25KT P6SM SCT040 SCT150
     FM050200 17010KT P6SM SCT040 BKN250
     FM050900 16010KT P6SM BKN040=

USA.gov is the U.S. government's official web portal to all federal, state and local government web resources and services.